createdAt,value
2023-03-21T00:01:36.540Z,61.8
2023-03-21T00:07:48.901Z,61.8
2023-03-21T00:14:07.713Z,61.8
2023-03-21T00:20:17.136Z,61.7
2023-03-21T00:26:53.888Z,61.6
2023-03-21T00:33:38.582Z,61.6
2023-03-21T00:40:49.052Z,61.5
2023-03-21T00:47:25.821Z,61.4
2023-03-21T00:53:36.014Z,61.4
2023-03-21T00:59:25.488Z,61.3
2023-03-21T01:05:31.393Z,61.3
2023-03-21T01:11:26.757Z,61.2
2023-03-21T01:17:29.901Z,61.1
2023-03-21T01:29:20.227Z,61.1
2023-03-21T01:35:14.444Z,61
2023-03-21T01:41:19.875Z,60.9
2023-03-21T01:47:26.770Z,60.9
2023-03-21T01:53:24.842Z,60.8
2023-03-21T01:58:57.935Z,60.8
2023-03-21T02:04:53.114Z,60.8
2023-03-21T02:10:40.617Z,60.7
2023-03-21T02:16:31.039Z,60.6
2023-03-21T02:22:12.115Z,60.6
2023-03-21T02:27:56.215Z,60.5
2023-03-21T02:34:17.486Z,60.5
2023-03-21T02:40:35.165Z,60.4
2023-03-21T02:47:22.572Z,60.4
2023-03-21T02:54:24.796Z,60.3
2023-03-21T03:00:33.257Z,60.3
2023-03-21T03:06:17.814Z,60.2
2023-03-21T03:11:53.357Z,60.1
2023-03-21T03:18:25.480Z,60.1
2023-03-21T03:24:14.224Z,60
2023-03-21T03:29:57.350Z,60
2023-03-21T03:36:31.393Z,59.9
2023-03-21T03:42:27.875Z,59.9
2023-03-21T03:48:46.511Z,59.8
2023-03-21T03:54:41.466Z,59.8
2023-03-21T04:00:47.792Z,59.7
2023-03-21T04:07:03.635Z,59.6
2023-03-21T04:12:53.921Z,59.6
2023-03-21T04:19:10.474Z,59.5
2023-03-21T04:24:51.690Z,59.5
2023-03-21T04:31:25.369Z,59.4
2023-03-21T04:37:19.432Z,59.4
2023-03-21T04:43:11.210Z,59.3
2023-03-21T04:49:04.023Z,59.3
2023-03-21T04:54:55.792Z,59.3
2023-03-21T05:00:47.981Z,59.2
2023-03-21T05:06:41.842Z,59
2023-03-21T05:12:37.338Z,58.9
2023-03-21T05:18:29.395Z,58.8
2023-03-21T05:24:21.236Z,58.7
2023-03-21T05:30:13.901Z,58.6
2023-03-21T05:41:45.113Z,58.5
2023-03-21T05:47:39.310Z,58.4
2023-03-21T05:53:15.738Z,58.4
2023-03-21T05:59:08.064Z,58.3
2023-03-21T06:05:01.333Z,58.3
2023-03-21T06:10:53.577Z,58.3
2023-03-21T06:16:46.505Z,58.2
2023-03-21T06:22:39.204Z,58.1
2023-03-21T06:27:44.968Z,58
2023-03-21T06:33:37.620Z,58
2023-03-21T06:39:30.648Z,57.9
2023-03-21T06:45:23.244Z,57.8
2023-03-21T06:56:39.379Z,57.7
2023-03-21T07:02:15.497Z,57.6
2023-03-21T07:08:11.533Z,57.5
2023-03-21T07:13:49.124Z,57.5
2023-03-21T07:19:41.739Z,57.4
2023-03-21T07:25:40.539Z,57.4
2023-03-21T07:31:18.168Z,57.3
2023-03-21T07:36:54.985Z,57.2
2023-03-21T07:48:29.708Z,57.1
2023-03-21T07:54:22.220Z,57
2023-03-21T08:00:15.267Z,57
2023-03-21T08:06:10.122Z,56.9
2023-03-21T08:12:05.534Z,56.8
2023-03-21T08:17:58.416Z,56.8
2023-03-21T08:23:50.956Z,56.7
2023-03-21T08:29:44.099Z,56.6
2023-03-21T08:35:22.102Z,56.6
2023-03-21T08:41:18.885Z,56.5
2023-03-21T08:46:57.441Z,56.4
2023-03-21T08:52:50.632Z,56.4
2023-03-21T08:58:44.463Z,56.3
2023-03-21T09:04:38.189Z,56.3
2023-03-21T09:10:52.565Z,56.1
2023-03-21T09:16:32.413Z,56.1
2023-03-21T09:22:24.903Z,56
2023-03-21T09:28:19.653Z,56
2023-03-21T09:33:57.026Z,55.9
2023-03-21T09:39:49.306Z,55.9
2023-03-21T09:45:42.761Z,55.8
2023-03-21T09:51:54.893Z,55.8
2023-03-21T09:57:47.474Z,55.7
2023-03-21T10:03:41.276Z,55.6
2023-03-21T10:09:35.616Z,55.6
2023-03-21T10:15:30.939Z,55.5
2023-03-21T10:21:47.993Z,55.4
2023-03-21T10:27:44.926Z,55.4
2023-03-21T10:33:54.690Z,55.3
2023-03-21T10:39:49.031Z,55.3
2023-03-21T10:45:27.343Z,55.2
2023-03-21T10:51:47.296Z,55.1
2023-03-21T10:57:40.734Z,55.1
2023-03-21T11:03:19.271Z,55
2023-03-21T11:08:56.914Z,54.9
2023-03-21T11:15:00.653Z,54.9
2023-03-21T11:20:40.175Z,54.9
2023-03-21T11:26:33.275Z,54.8
2023-03-21T11:32:26.777Z,54.8
2023-03-21T11:38:19.919Z,54.7
2023-03-21T11:44:13.406Z,54.6
2023-03-21T11:50:12.253Z,54.6
2023-03-21T11:55:49.852Z,54.5
2023-03-21T12:01:54.932Z,54.4
2023-03-21T12:08:01.823Z,54.4
2023-03-21T12:14:02.801Z,54.3
2023-03-21T12:19:56.271Z,54.3
2023-03-21T12:25:50.015Z,54.3
2023-03-21T12:31:57.498Z,54.1
2023-03-21T12:37:53.130Z,54.1
2023-03-21T12:43:46.280Z,54.1
2023-03-21T12:50:01.493Z,54
2023-03-21T12:55:23.643Z,53.9
2023-03-21T13:01:14.347Z,53.9
2023-03-21T13:07:04.936Z,53.9
2023-03-21T13:12:48.111Z,53.8
2023-03-21T13:18:49.230Z,53.8
2023-03-21T13:24:42.422Z,53.7
2023-03-21T13:30:35.706Z,53.6
2023-03-21T13:36:23.514Z,53.6
2023-03-21T13:42:16.671Z,53.5
2023-03-21T13:48:27.004Z,53.5
2023-03-21T13:54:29.374Z,53.4
2023-03-21T14:00:23.409Z,53.4
2023-03-21T14:06:27.766Z,53.3
2023-03-21T14:12:40.385Z,53.3
2023-03-21T14:19:10.512Z,53.2
2023-03-21T14:25:07.130Z,53.1
2023-03-21T14:31:26.167Z,53.1
2023-03-21T14:36:57.430Z,53
2023-03-21T14:42:52.352Z,53
2023-03-21T14:48:53.611Z,52.9
2023-03-21T14:54:30.756Z,52.9
2023-03-21T15:00:09.309Z,52.8
2023-03-21T15:06:03.239Z,52.8
2023-03-21T15:11:53.895Z,52.7
2023-03-21T15:17:48.525Z,52.6
2023-03-21T15:23:41.045Z,52.6
2023-03-21T15:29:35.636Z,52.6
2023-03-21T15:35:14.148Z,52.5
2023-03-21T15:40:51.713Z,52.4
2023-03-21T15:57:35.202Z,52.3
2023-03-21T16:02:58.006Z,52.3
2023-03-21T16:08:51.455Z,52.2
2023-03-21T16:14:43.944Z,52.1
2023-03-21T16:20:36.626Z,52.1
2023-03-21T16:26:29.865Z,52.1
2023-03-21T16:32:22.808Z,52
2023-03-21T16:54:53.243Z,51.8
2023-03-21T17:00:48.268Z,51.8
2023-03-21T17:06:42.966Z,51.7
2023-03-21T17:12:19.764Z,51.7
2023-03-21T17:18:13.318Z,51.6
2023-03-21T17:23:53.505Z,51.7
2023-03-21T17:29:45.625Z,51.4
2023-03-21T17:35:39.359Z,51.4
2023-03-21T17:41:32.074Z,51.4
2023-03-21T17:47:25.373Z,51.4
2023-03-21T17:52:49.649Z,51.3
2023-03-21T17:58:12.890Z,51.3
2023-03-21T18:04:07.944Z,51.3
2023-03-21T18:10:45.266Z,51.2
2023-03-21T18:17:02.231Z,51.1
2023-03-21T18:22:51.542Z,50.9
2023-03-21T18:30:44.974Z,51
2023-03-21T18:37:16.148Z,50.9
2023-03-21T18:44:17.425Z,50.9
2023-03-21T18:51:05.334Z,50.9
2023-03-21T18:58:15.043Z,50.8
2023-03-21T19:04:54.166Z,50.7
2023-03-21T19:11:06.911Z,50.7
2023-03-21T19:25:07.203Z,50.6
2023-03-21T19:31:23.509Z,50.6
2023-03-21T19:37:41.745Z,50.5
2023-03-21T19:44:11.756Z,50.4
2023-03-21T19:51:00.410Z,50.4
2023-03-21T19:57:21.007Z,50.4
2023-03-21T20:03:40.884Z,50.3
2023-03-21T20:10:23.868Z,50.3
2023-03-21T20:16:34.035Z,50.2
2023-03-21T20:23:22.250Z,50.1
2023-03-21T20:30:23.702Z,50.1
2023-03-21T20:37:31.084Z,50.1
2023-03-21T20:44:45.068Z,50
2023-03-21T20:50:42.693Z,50.1
2023-03-21T20:57:55.649Z,49.9
2023-03-21T21:04:57.276Z,49.8
2023-03-21T21:11:39.794Z,49.8
2023-03-21T21:18:03.807Z,49.8
2023-03-21T21:24:07.526Z,49.8
2023-03-21T21:30:00.913Z,49.7
2023-03-21T21:35:54.257Z,49.6
2023-03-21T21:41:46.594Z,49.6
2023-03-21T21:47:24.165Z,49.5
2023-03-21T21:53:17.219Z,49.5
2023-03-21T21:58:55.408Z,49.4
2023-03-21T22:04:47.701Z,49.4
2023-03-21T22:10:28.170Z,49.4
2023-03-21T22:16:06.005Z,49.3
2023-03-21T22:21:47.315Z,49.3
2023-03-21T22:27:25.432Z,49.3
2023-03-21T22:33:26.355Z,49.2
2023-03-21T22:39:03.452Z,49.1
2023-03-21T22:44:56.378Z,49.1
2023-03-21T22:50:32.704Z,49.1
2023-03-21T22:56:25.906Z,49
2023-03-21T23:02:18.924Z,49
2023-03-21T23:07:57.263Z,48.9
2023-03-21T23:13:35.110Z,48.8
2023-03-21T23:19:12.185Z,48.8
2023-03-21T23:25:05.321Z,48.8
2023-03-21T23:30:44.778Z,48.7
2023-03-21T23:36:38.615Z,48.7
2023-03-21T23:42:30.666Z,48.6
2023-03-21T23:48:23.238Z,48.6
2023-03-21T23:54:17.133Z,48.6
